createdAt,value
2022-11-01T00:00:54.012Z,94.80
2022-11-01T00:01:54.128Z,95.10
2022-11-01T00:02:53.990Z,95.10
2022-11-01T00:03:53.994Z,95.10
2022-11-01T00:04:53.984Z,94.80
2022-11-01T00:05:53.959Z,94.90
2022-11-01T00:06:53.968Z,94.80
2022-11-01T00:07:53.934Z,95.10
2022-11-01T00:08:53.922Z,94.80
2022-11-01T00:09:53.912Z,94.90
2022-11-01T00:10:53.901Z,95.10
2022-11-01T00:11:53.911Z,94.80
2022-11-01T00:12:53.882Z,95.01
2022-11-01T00:13:53.869Z,95.10
2022-11-01T00:14:53.857Z,94.80
2022-11-01T00:15:53.888Z,94.90
2022-11-01T00:16:53.845Z,94.90
2022-11-01T00:17:53.831Z,95.01
2022-11-01T00:18:53.811Z,95.21
2022-11-01T00:19:53.801Z,95.01
2022-11-01T00:20:53.819Z,95.10
2022-11-01T00:21:53.801Z,95.31
2022-11-01T00:22:53.768Z,95.05
2022-11-01T00:23:53.780Z,95.41
2022-11-01T00:24:54.991Z,95.51
2022-11-01T00:25:53.737Z,95.76
2022-11-01T00:26:53.741Z,95.62
2022-11-01T00:27:53.712Z,95.62
2022-11-01T00:28:53.703Z,96.17
2022-11-01T00:29:53.691Z,96.07
2022-11-01T00:30:53.681Z,96.07
2022-11-01T00:31:53.687Z,96.68
2022-11-01T00:32:53.660Z,96.37
2022-11-01T00:33:53.648Z,96.68
2022-11-01T00:34:53.638Z,96.07
2022-11-01T00:35:53.632Z,96.68
2022-11-01T00:36:53.645Z,96.63
2022-11-01T00:37:53.611Z,96.12
2022-11-01T00:38:53.597Z,96.17
2022-11-01T00:39:53.583Z,96.17
2022-11-01T00:40:53.588Z,96.58
2022-11-01T00:41:53.585Z,96.27
2022-11-01T00:42:53.550Z,96.37
2022-11-01T00:43:53.549Z,96.47
2022-11-01T00:44:53.527Z,96.78
2022-11-01T00:45:53.518Z,96.58
2022-11-01T00:46:53.515Z,96.68
2022-11-01T00:47:53.521Z,96.23
2022-11-01T00:48:53.489Z,96.37
2022-11-01T00:49:53.470Z,96.37
2022-11-01T00:50:53.463Z,96.68
2022-11-01T00:51:53.459Z,96.58
2022-11-01T00:52:53.459Z,97.03
2022-11-01T00:53:53.430Z,97.03
2022-11-01T00:54:53.418Z,97.44
2022-11-01T00:55:53.417Z,97.44
2022-11-01T00:56:53.393Z,97.23
2022-11-01T00:57:53.390Z,97.74
2022-11-01T00:58:53.380Z,97.03
2022-11-01T01:00:53.426Z,97.53
2022-11-01T01:01:53.517Z,97.94
2022-11-01T01:02:53.328Z,97.74
2022-11-01T01:03:53.315Z,98.50
2022-11-01T01:04:53.311Z,98.14
2022-11-01T01:05:53.304Z,97.84
2022-11-01T01:06:53.287Z,98.14
2022-11-01T01:07:53.282Z,98.05
2022-11-01T01:08:53.277Z,98.14
2022-11-01T01:09:53.249Z,98.35
2022-11-01T01:10:53.252Z,98.14
2022-11-01T01:11:53.228Z,98.75
2022-11-01T01:12:53.220Z,98.14
2022-11-01T01:13:53.207Z,97.94
2022-11-01T01:14:53.195Z,97.84
2022-11-01T01:15:53.196Z,98.14
2022-11-01T01:16:53.173Z,98.35
2022-11-01T01:17:53.162Z,98.35
2022-11-01T01:18:53.153Z,98.35
2022-11-01T01:19:53.138Z,97.74
2022-11-01T01:20:53.140Z,98.35
2022-11-01T01:21:53.116Z,97.74
2022-11-01T01:22:53.106Z,98.25
2022-11-01T01:23:53.097Z,98.50
2022-11-01T01:24:53.102Z,98.41
2022-11-01T01:25:53.084Z,97.33
2022-11-01T01:26:53.065Z,97.29
2022-11-01T01:27:53.050Z,97.60
2022-11-01T01:28:53.044Z,97.64
2022-11-01T01:29:53.027Z,97.60
2022-11-01T01:30:53.219Z,97.69
2022-11-01T01:31:53.005Z,97.69
2022-11-01T01:32:52.996Z,97.39
2022-11-01T01:33:52.985Z,97.39
2022-11-01T01:34:52.975Z,96.98
2022-11-01T01:35:52.982Z,96.98
2022-11-01T01:36:52.952Z,97.19
2022-11-01T01:37:52.939Z,97.14
2022-11-01T01:38:52.932Z,97.24
2022-11-01T01:39:52.932Z,97.44
2022-11-01T01:40:52.924Z,97.19
2022-11-01T01:41:52.897Z,97.08
2022-11-01T01:42:52.885Z,97.60
2022-11-01T01:43:52.884Z,97.08
2022-11-01T01:44:52.874Z,97.39
2022-11-01T01:45:52.851Z,97.49
2022-11-01T01:46:52.844Z,96.78
2022-11-01T01:47:52.830Z,97.44
2022-11-01T01:48:52.822Z,97.39
2022-11-01T01:50:52.801Z,97.29
2022-11-01T01:51:52.788Z,97.49
2022-11-01T01:52:52.777Z,97.19
2022-11-01T01:53:52.764Z,97.19
2022-11-01T01:54:52.765Z,97.29
2022-11-01T01:55:52.741Z,97.14
2022-11-01T01:56:52.751Z,97.34
2022-11-01T01:57:52.722Z,97.04
2022-11-01T01:58:52.709Z,97.04
2022-11-01T01:59:52.706Z,97.44
2022-11-01T02:00:52.705Z,97.34
2022-11-01T02:01:52.808Z,97.39
2022-11-01T02:02:52.665Z,96.94
2022-11-01T02:03:52.652Z,96.94
2022-11-01T02:04:52.677Z,97.04
2022-11-01T02:05:52.629Z,96.94
2022-11-01T02:06:52.621Z,96.73
2022-11-01T02:07:52.608Z,96.43
2022-11-01T02:08:52.602Z,96.73
2022-11-01T02:09:52.593Z,96.12
2022-11-01T02:10:52.575Z,95.86
2022-11-01T02:11:52.563Z,96.37
2022-11-01T02:12:52.571Z,96.27
2022-11-01T02:13:52.541Z,96.68
2022-11-01T02:14:52.540Z,95.97
2022-11-01T02:15:52.518Z,95.86
2022-11-01T02:16:52.518Z,95.56
2022-11-01T02:17:52.509Z,95.36
2022-11-01T02:18:52.522Z,95.66
2022-11-01T02:19:52.487Z,95.05
2022-11-01T02:20:52.466Z,95.56
2022-11-01T02:21:52.467Z,95.36
2022-11-01T02:22:52.444Z,95.09
2022-11-01T02:23:52.432Z,95.20
2022-11-01T02:24:52.432Z,95.09
2022-11-01T02:25:52.409Z,95.09
2022-11-01T02:26:52.400Z,95.09
2022-11-01T02:27:52.390Z,94.28
2022-11-01T02:28:52.392Z,94.89
2022-11-01T02:29:52.398Z,95.30
2022-11-01T02:30:52.362Z,94.48
2022-11-01T02:31:52.342Z,94.59
2022-11-01T02:32:52.334Z,94.38
2022-11-01T02:33:52.320Z,94.43
2022-11-01T02:34:52.331Z,94.53
2022-11-01T02:35:52.300Z,95.14
2022-11-01T02:36:52.289Z,94.84
2022-11-01T02:37:59.846Z,94.59
2022-11-01T02:38:52.272Z,95.14
2022-11-01T02:39:52.270Z,94.73
2022-11-01T02:40:52.258Z,94.43
2022-11-01T02:41:52.235Z,94.93
2022-11-01T02:42:52.223Z,94.73
2022-11-01T02:43:52.213Z,95.14
2022-11-01T02:44:52.228Z,94.73
2022-11-01T02:45:52.193Z,95.34
2022-11-01T02:46:52.181Z,94.93
2022-11-01T02:47:52.167Z,94.93
2022-11-01T02:48:52.156Z,94.84
2022-11-01T02:49:52.159Z,94.53
2022-11-01T02:50:52.135Z,94.93
2022-11-01T02:51:52.123Z,94.93
2022-11-01T02:52:52.114Z,94.63
2022-11-01T02:53:52.099Z,95.29
2022-11-01T02:54:52.100Z,95.18
2022-11-01T02:55:52.080Z,95.08
2022-11-01T02:56:52.072Z,95.18
2022-11-01T02:57:52.056Z,95.39
2022-11-01T02:58:52.049Z,95.39
2022-11-01T02:59:52.087Z,95.08
2022-11-01T03:00:52.159Z,95.49
2022-11-01T03:01:52.163Z,95.39
2022-11-01T03:02:52.002Z,95.29
2022-11-01T03:03:51.991Z,95.53
2022-11-01T03:04:51.989Z,95.49
2022-11-01T03:05:51.967Z,95.79
2022-11-01T03:06:51.961Z,95.49
2022-11-01T03:07:51.946Z,95.69
2022-11-01T03:08:51.934Z,95.69
2022-11-01T03:09:51.935Z,95.74
2022-11-01T03:10:51.912Z,96.10
2022-11-01T03:11:51.903Z,95.49
2022-11-01T03:12:51.891Z,96.25
2022-11-01T03:13:51.929Z,96.55
2022-11-01T03:14:51.880Z,96.81
2022-11-01T03:15:51.856Z,96.41
2022-11-01T03:16:51.863Z,96.71
2022-11-01T03:17:51.837Z,96.81
2022-11-01T03:18:51.823Z,97.02
2022-11-01T03:19:51.822Z,97.16
2022-11-01T03:20:51.809Z,97.32
2022-11-01T03:21:51.790Z,97.22
2022-11-01T03:22:51.782Z,97.67
2022-11-01T03:23:51.768Z,97.78
2022-11-01T03:24:51.772Z,97.27
2022-11-01T03:25:51.748Z,97.78
2022-11-01T03:26:51.737Z,97.78
2022-11-01T03:27:51.727Z,98.28
2022-11-01T03:28:51.834Z,98.49
2022-11-01T03:29:51.736Z,98.28
2022-11-01T03:30:51.692Z,98.49
2022-11-01T03:31:51.681Z,98.08
2022-11-01T03:32:51.688Z,98.54
2022-11-01T03:33:51.666Z,98.54
2022-11-01T03:34:51.662Z,98.02
2022-11-01T03:35:51.638Z,98.33
2022-11-01T03:36:51.625Z,98.54
2022-11-01T03:37:51.613Z,97.88
2022-11-01T03:38:51.604Z,97.88
2022-11-01T03:39:51.608Z,97.98
2022-11-01T03:40:51.582Z,97.88
2022-11-01T03:41:51.570Z,98.18
2022-11-01T03:42:51.560Z,98.59
2022-11-01T03:43:51.547Z,98.54
2022-11-01T03:44:51.538Z,98.64
2022-11-01T03:45:51.537Z,98.54
2022-11-01T03:46:51.519Z,98.43
2022-11-01T03:47:51.503Z,98.43
2022-11-01T03:48:51.512Z,98.64
2022-11-01T03:49:51.482Z,98.33
2022-11-01T03:50:51.481Z,98.33
2022-11-01T03:51:51.461Z,98.33
2022-11-01T03:52:51.454Z,98.43
2022-11-01T03:53:51.442Z,98.33
2022-11-01T03:54:51.440Z,98.74
2022-11-01T03:55:51.420Z,98.33
2022-11-01T03:56:51.406Z,98.43
2022-11-01T03:57:51.394Z,98.27
2022-11-01T03:58:51.386Z,98.54
2022-11-01T03:59:51.383Z,98.48
2022-11-01T04:00:51.415Z,98.48
2022-11-01T04:01:51.504Z,98.74
2022-11-01T04:02:51.340Z,98.54
2022-11-01T04:03:51.329Z,98.54
2022-11-01T04:04:51.349Z,98.54
2022-11-01T04:05:51.308Z,98.43
2022-11-01T04:06:51.307Z,98.48
2022-11-01T04:07:51.287Z,98.54
2022-11-01T04:08:51.276Z,98.74
2022-11-01T04:09:51.274Z,98.48
2022-11-01T04:10:51.250Z,98.43
2022-11-01T04:11:51.241Z,98.64
2022-11-01T04:12:51.229Z,98.68
2022-11-01T04:13:51.223Z,98.68
2022-11-01T04:14:51.230Z,98.27
2022-11-01T04:15:51.199Z,98.07
2022-11-01T04:16:51.185Z,98.33
2022-11-01T04:17:51.179Z,98.18
2022-11-01T04:18:51.165Z,98.02
2022-11-01T04:19:51.170Z,98.33
2022-11-01T04:20:51.160Z,98.33
2022-11-01T04:21:51.138Z,98.54
2022-11-01T04:22:51.123Z,98.13
2022-11-01T04:23:51.114Z,98.43
2022-11-01T04:24:51.114Z,98.02
2022-11-01T04:25:51.097Z,98.38
2022-11-01T04:26:51.076Z,98.18
2022-11-01T04:27:51.067Z,98.54
2022-11-01T04:28:51.056Z,98.54
2022-11-01T04:29:51.055Z,98.48
2022-11-01T04:30:51.032Z,98.54
2022-11-01T04:31:51.023Z,98.23
2022-11-01T04:32:51.014Z,98.48
2022-11-01T04:33:51.000Z,98.27
2022-11-01T04:34:51.003Z,98.27
2022-11-01T04:35:50.979Z,98.02
2022-11-01T04:36:51.008Z,97.92
2022-11-01T04:37:50.962Z,98.02
2022-11-01T04:38:50.949Z,98.02
2022-11-01T04:39:50.952Z,98.59
2022-11-01T04:40:50.926Z,98.94
2022-11-01T04:41:50.915Z,98.33
2022-11-01T04:42:50.929Z,98.48
2022-11-01T04:43:50.893Z,98.89
2022-11-01T04:44:50.882Z,98.38
2022-11-01T04:45:50.889Z,98.58
2022-11-01T04:46:50.862Z,98.68
2022-11-01T04:47:50.849Z,98.18
2022-11-01T04:48:50.836Z,98.27
2022-11-01T04:49:50.829Z,97.97
2022-11-01T04:50:50.826Z,98.63
2022-11-01T04:51:50.806Z,98.58
2022-11-01T04:52:50.811Z,98.58
2022-11-01T04:53:50.784Z,98.73
2022-11-01T04:54:50.805Z,98.38
2022-11-01T04:55:50.777Z,98.63
2022-11-01T04:56:50.749Z,98.11
2022-11-01T04:57:50.744Z,98.32
2022-11-01T04:58:50.732Z,98.73
2022-11-01T04:59:50.720Z,98.73
2022-11-01T05:00:50.850Z,98.52
2022-11-01T05:01:50.850Z,98.83
2022-11-01T05:02:50.687Z,99.04
2022-11-01T05:03:50.679Z,99.09
2022-11-01T05:04:50.662Z,98.99
2022-11-01T05:05:50.664Z,98.52
2022-11-01T05:06:50.667Z,99.40
2022-11-01T05:07:50.733Z,99.40
2022-11-01T05:08:50.635Z,98.79
2022-11-01T05:09:50.609Z,98.99
2022-11-01T05:10:50.611Z,98.38
2022-11-01T05:11:50.590Z,98.48
2022-11-01T05:12:50.576Z,98.38
2022-11-01T05:13:50.566Z,98.68
2022-11-01T05:14:55.805Z,98.38
2022-11-01T05:16:06.560Z,98.48
2022-11-01T05:16:51.532Z,98.68
2022-11-01T05:17:50.523Z,98.68
2022-11-01T05:18:50.510Z,98.27
2022-11-01T05:19:50.501Z,98.27
2022-11-01T05:20:50.500Z,98.18
2022-11-01T05:21:50.478Z,98.58
2022-11-01T05:22:50.467Z,98.89
2022-11-01T05:23:50.465Z,98.79
2022-11-01T05:24:50.462Z,98.64
2022-11-01T05:25:50.450Z,98.68
2022-11-01T05:26:50.422Z,98.23
2022-11-01T05:27:50.414Z,97.82
2022-11-01T05:28:50.402Z,98.54
2022-11-01T05:29:50.391Z,98.94
2022-11-01T05:30:50.390Z,98.13
2022-11-01T05:31:50.371Z,98.79
2022-11-01T05:32:50.359Z,98.99
2022-11-01T05:33:50.347Z,98.73
2022-11-01T05:34:50.338Z,98.73
2022-11-01T05:35:50.346Z,98.27
2022-11-01T05:36:50.319Z,97.66
2022-11-01T05:37:50.308Z,97.87
2022-11-01T05:38:50.293Z,97.77
2022-11-01T05:39:50.284Z,97.77
2022-11-01T05:40:50.300Z,97.46
2022-11-01T05:41:50.263Z,97.56
2022-11-01T05:42:50.250Z,97.66
2022-11-01T05:43:50.241Z,97.77
2022-11-01T05:44:50.226Z,97.97
2022-11-01T05:45:50.230Z,98.54
2022-11-01T05:46:50.205Z,98.23
2022-11-01T05:47:50.196Z,98.33
2022-11-01T05:48:50.183Z,98.33
2022-11-01T05:49:50.174Z,98.28
2022-11-01T05:50:50.183Z,98.33
2022-11-01T05:51:50.152Z,98.08
2022-11-01T05:52:50.144Z,98.13
2022-11-01T05:53:50.138Z,98.43
2022-11-01T05:54:50.121Z,98.54
2022-11-01T05:55:50.119Z,98.13
2022-11-01T05:56:50.113Z,98.33
2022-11-01T05:57:50.092Z,98.43
2022-11-01T05:58:50.074Z,98.74
2022-11-01T05:59:50.074Z,98.84
2022-11-01T06:00:50.071Z,98.94
2022-11-01T06:01:50.196Z,98.54
2022-11-01T06:02:50.148Z,98.54
2022-11-01T06:03:50.033Z,98.54
2022-11-01T06:04:50.011Z,98.64
2022-11-01T06:05:50.012Z,98.33
2022-11-01T06:06:49.996Z,98.84
2022-11-01T06:07:49.979Z,98.13
2022-11-01T06:08:49.966Z,98.02
2022-11-01T06:09:49.959Z,98.33
2022-11-01T06:10:49.965Z,98.02
2022-11-01T06:11:49.938Z,98.43
2022-11-01T06:12:49.942Z,98.58
2022-11-01T06:13:49.915Z,98.07
2022-11-01T06:14:49.905Z,98.23
2022-11-01T06:15:49.903Z,98.13
2022-11-01T06:16:49.882Z,98.43
2022-11-01T06:17:49.883Z,98.43
2022-11-01T06:18:49.866Z,98.74
2022-11-01T06:19:49.848Z,98.54
2022-11-01T06:20:49.849Z,98.64
2022-11-01T06:21:49.831Z,98.74
2022-11-01T06:22:49.815Z,98.13
2022-11-01T06:23:49.804Z,98.23
2022-11-01T06:24:49.794Z,98.13
2022-11-01T06:25:49.795Z,98.64
2022-11-01T06:26:49.784Z,98.23
2022-11-01T06:27:49.765Z,98.33
2022-11-01T06:28:49.771Z,97.52
2022-11-01T06:29:49.745Z,97.92
2022-11-01T06:30:49.742Z,97.72
2022-11-01T06:31:49.718Z,97.37
2022-11-01T06:32:49.708Z,97.31
2022-11-01T06:33:49.699Z,97.52
2022-11-01T06:34:49.690Z,97.11
2022-11-01T06:35:49.680Z,97.62
2022-11-01T06:36:49.663Z,97.62
2022-11-01T06:37:49.649Z,97.41
2022-11-01T06:38:49.637Z,97.31
2022-11-01T06:39:49.668Z,97.52
2022-11-01T06:40:49.624Z,97.31
2022-11-01T06:41:49.604Z,97.67
2022-11-01T06:42:49.594Z,97.16
2022-11-01T06:43:49.581Z,97.16
2022-11-01T06:44:49.606Z,97.27
2022-11-01T06:45:49.562Z,97.16
2022-11-01T06:46:49.586Z,96.92
2022-11-01T06:47:49.542Z,96.71
2022-11-01T06:48:49.527Z,96.51
2022-11-01T06:49:49.528Z,96.35
2022-11-01T06:50:49.506Z,96.55
2022-11-01T06:51:49.495Z,96.41
2022-11-01T06:52:49.482Z,96.55
2022-11-01T06:53:49.473Z,96.71
2022-11-01T06:54:49.469Z,96.41
2022-11-01T06:55:49.451Z,95.69
2022-11-01T06:56:49.441Z,95.59
2022-11-01T06:57:49.430Z,95.49
2022-11-01T06:58:49.428Z,95.18
2022-11-01T06:59:49.410Z,95.18
2022-11-01T07:00:49.460Z,95.08
2022-11-01T07:01:49.626Z,95.34
2022-11-01T07:02:49.445Z,95.24
2022-11-01T07:03:49.377Z,95.24
2022-11-01T07:04:49.350Z,95.14
2022-11-01T07:05:49.340Z,95.39
2022-11-01T07:06:49.331Z,94.84
2022-11-01T07:07:49.317Z,95.04
2022-11-01T07:08:49.305Z,94.68
2022-11-01T07:09:49.311Z,95.34
2022-11-01T07:10:49.286Z,95.45
2022-11-01T07:11:49.276Z,95.34
2022-11-01T07:12:49.267Z,95.04
2022-11-01T07:13:49.253Z,95.14
2022-11-01T07:14:49.252Z,95.14
2022-11-01T07:15:49.236Z,95.14
2022-11-01T07:16:49.256Z,95.18
2022-11-01T07:17:49.242Z,95.08
2022-11-01T07:18:49.205Z,95.39
2022-11-01T07:19:49.205Z,94.78
2022-11-01T07:20:49.176Z,94.93
2022-11-01T07:21:49.164Z,95.34
2022-11-01T07:22:49.159Z,94.73
2022-11-01T07:23:49.145Z,94.84
2022-11-01T07:24:49.175Z,94.93
2022-11-01T07:25:49.122Z,94.88
2022-11-01T07:26:49.107Z,94.68
2022-11-01T07:27:49.100Z,95.39
2022-11-01T07:28:49.096Z,94.98
2022-11-01T07:29:49.077Z,95.08
2022-11-01T07:30:49.064Z,94.68
2022-11-01T07:31:49.054Z,94.88
2022-11-01T07:32:49.059Z,94.98
2022-11-01T07:33:49.047Z,95.24
2022-11-01T07:34:49.022Z,95.04
2022-11-01T07:35:49.016Z,95.14
2022-11-01T07:36:48.997Z,95.24
2022-11-01T07:37:48.991Z,95.14
2022-11-01T07:38:48.989Z,94.63
2022-11-01T07:39:48.970Z,94.93
2022-11-01T07:40:48.954Z,94.69
2022-11-01T07:41:48.952Z,94.48
2022-11-01T07:42:48.934Z,95.14
2022-11-01T07:43:48.931Z,95.30
2022-11-01T07:44:48.911Z,95.09
2022-11-01T07:45:48.906Z,95.00
2022-11-01T07:46:48.888Z,94.48
2022-11-01T07:47:48.880Z,94.59
2022-11-01T07:48:48.932Z,93.87
2022-11-01T07:49:48.859Z,93.98
2022-11-01T07:50:48.845Z,93.67
2022-11-01T07:51:48.838Z,93.32
2022-11-01T07:52:48.826Z,93.73
2022-11-01T07:53:48.887Z,93.52
2022-11-01T07:54:48.800Z,93.93
2022-11-01T07:55:48.790Z,93.22
2022-11-01T07:56:48.779Z,93.22
2022-11-01T07:57:48.771Z,92.67
2022-11-01T07:58:48.767Z,92.67
2022-11-01T07:59:48.747Z,92.67
2022-11-01T08:00:48.794Z,92.77
2022-11-01T08:01:48.860Z,92.67
2022-11-01T08:02:48.712Z,92.26
2022-11-01T08:03:48.717Z,91.82
2022-11-01T08:04:48.712Z,91.91
2022-11-01T08:05:48.681Z,91.41
2022-11-01T08:06:52.041Z,91.51
2022-11-01T08:07:48.660Z,91.00
2022-11-01T08:08:48.656Z,91.10
2022-11-01T08:09:48.653Z,90.66
2022-11-01T08:10:48.635Z,90.75
2022-11-01T08:11:48.620Z,90.35
2022-11-01T08:12:48.607Z,90.14
2022-11-01T08:13:48.602Z,89.94
2022-11-01T08:14:48.586Z,89.84
2022-11-01T08:15:48.572Z,89.64
2022-11-01T08:16:48.559Z,89.84
2022-11-01T08:17:48.565Z,89.19
2022-11-01T08:18:48.549Z,89.33
2022-11-01T08:19:48.532Z,88.38
2022-11-01T08:20:48.544Z,88.18
2022-11-01T08:21:48.508Z,88.03
2022-11-01T08:22:48.547Z,88.44
2022-11-01T08:23:48.517Z,87.99
2022-11-01T08:24:48.471Z,87.79
2022-11-01T08:25:48.461Z,87.08
2022-11-01T08:26:48.450Z,87.28
2022-11-01T08:27:48.439Z,86.68
2022-11-01T08:28:48.447Z,86.68
2022-11-01T08:29:48.429Z,85.86
2022-11-01T08:30:48.411Z,86.02
2022-11-01T08:31:48.396Z,86.13
2022-11-01T08:32:48.385Z,86.22
2022-11-01T08:33:48.385Z,85.62
2022-11-01T08:34:48.364Z,85.58
2022-11-01T08:35:50.675Z,85.38
2022-11-01T08:36:48.354Z,85.58
2022-11-01T08:38:43.434Z,84.53
2022-11-01T08:39:43.412Z,84.12
2022-11-01T08:40:43.402Z,83.72
2022-11-01T08:41:43.392Z,83.17
2022-11-01T08:42:43.381Z,83.17
2022-11-01T08:43:43.380Z,82.97
2022-11-01T08:44:43.384Z,82.56
2022-11-01T08:45:43.369Z,81.82
2022-11-01T08:46:43.340Z,81.71
2022-11-01T08:47:43.336Z,81.35
2022-11-01T08:48:43.326Z,81.65
2022-11-01T08:49:43.678Z,81.41
2022-11-01T08:50:43.296Z,80.60
2022-11-01T08:51:43.282Z,80.60
2022-11-01T08:52:43.287Z,81.21
2022-11-01T08:53:43.270Z,80.77
2022-11-01T08:54:43.250Z,80.66
2022-11-01T08:55:43.311Z,80.46
2022-11-01T08:56:43.231Z,80.57
2022-11-01T08:57:43.230Z,79.96
2022-11-01T08:58:43.217Z,79.92
2022-11-01T08:59:43.203Z,79.62
2022-11-01T09:00:43.185Z,79.62
2022-11-01T09:01:43.294Z,79.21
2022-11-01T09:02:43.167Z,79.32
2022-11-01T09:03:43.162Z,79.41
2022-11-01T09:04:43.143Z,79.62
2022-11-01T09:05:43.133Z,79.41
2022-11-01T09:06:43.121Z,79.38
2022-11-01T09:07:43.121Z,79.58
2022-11-01T09:08:43.185Z,79.38
2022-11-01T09:09:43.087Z,79.38
2022-11-01T09:10:43.081Z,79.28
2022-11-01T09:11:43.064Z,79.38
2022-11-01T09:12:43.070Z,79.38
2022-11-01T09:13:43.044Z,78.57
2022-11-01T09:14:43.034Z,79.38
2022-11-01T09:15:43.025Z,78.63
2022-11-01T09:16:43.013Z,78.53
2022-11-01T09:17:43.016Z,78.23
2022-11-01T09:18:42.991Z,78.30
2022-11-01T09:19:42.990Z,77.25
2022-11-01T09:20:42.968Z,77.55
2022-11-01T09:21:42.958Z,77.15
2022-11-01T09:22:42.955Z,76.24
2022-11-01T09:23:42.949Z,76.51
2022-11-01T09:24:42.964Z,76.00
2022-11-01T09:25:42.915Z,76.20
2022-11-01T09:26:42.907Z,75.90
2022-11-01T09:27:42.900Z,75.60
2022-11-01T09:28:42.902Z,75.50
2022-11-01T09:29:45.295Z,76.07
2022-11-01T09:30:49.938Z,75.76
2022-11-01T09:31:43.852Z,76.10
2022-11-01T09:32:42.845Z,76.17
2022-11-01T09:33:42.841Z,76.00
2022-11-01T09:34:42.826Z,76.31
2022-11-01T09:35:46.458Z,76.34
2022-11-01T09:36:43.799Z,76.75
2022-11-01T09:37:42.800Z,76.14
2022-11-01T09:38:42.781Z,76.84
2022-11-01T09:39:42.774Z,77.79
2022-11-01T09:40:42.775Z,77.49
2022-11-01T09:41:42.746Z,77.79
2022-11-01T09:42:42.747Z,77.69
2022-11-01T09:43:42.726Z,78.39
2022-11-01T09:44:42.719Z,77.75
2022-11-01T09:45:42.711Z,77.86
2022-11-01T09:46:42.698Z,77.31
2022-11-01T09:47:42.696Z,77.51
2022-11-01T09:48:42.681Z,77.01
2022-11-01T09:49:42.662Z,77.01
2022-11-01T09:50:42.653Z,77.62
2022-11-01T09:51:42.647Z,77.62
2022-11-01T09:52:42.667Z,77.51
2022-11-01T09:53:42.713Z,77.51
2022-11-01T09:54:42.611Z,77.25
2022-11-01T09:55:42.614Z,77.45
2022-11-01T09:56:42.611Z,77.75
2022-11-01T09:57:42.589Z,78.06
2022-11-01T09:58:42.577Z,78.06
2022-11-01T09:59:42.557Z,78.30
2022-11-01T10:00:42.585Z,78.94
2022-11-01T10:01:42.660Z,79.21
2022-11-01T10:02:42.535Z,79.24
2022-11-01T10:03:42.515Z,78.70
2022-11-01T10:04:42.503Z,79.14
2022-11-01T10:05:42.493Z,79.24
2022-11-01T10:06:42.481Z,79.41
2022-11-01T10:07:42.483Z,78.59
2022-11-01T10:08:42.461Z,79.21
2022-11-01T10:09:42.450Z,79.24
2022-11-01T10:10:42.440Z,79.21
2022-11-01T10:11:42.448Z,79.21
2022-11-01T10:12:42.458Z,79.21
2022-11-01T10:13:42.405Z,79.30
2022-11-01T10:14:42.395Z,79.34
2022-11-01T10:15:42.383Z,79.21
2022-11-01T10:16:42.374Z,79.34
2022-11-01T10:17:42.443Z,79.34
2022-11-01T10:18:42.351Z,79.44
2022-11-01T10:19:42.340Z,79.34
2022-11-01T10:20:42.360Z,79.64
2022-11-01T10:21:42.319Z,79.54
2022-11-01T10:22:42.322Z,79.74
2022-11-01T10:23:42.300Z,80.15
2022-11-01T10:24:42.289Z,80.05
2022-11-01T10:25:42.276Z,80.15
2022-11-01T10:26:42.268Z,80.25
2022-11-01T10:27:42.268Z,79.85
2022-11-01T10:28:42.262Z,79.74
2022-11-01T10:29:42.232Z,80.05
2022-11-01T10:30:42.224Z,80.49
2022-11-01T10:31:42.209Z,80.35
2022-11-01T10:32:42.238Z,80.45
2022-11-01T10:33:42.188Z,80.39
2022-11-01T10:34:42.178Z,80.15
2022-11-01T10:35:42.168Z,80.35
2022-11-01T10:36:42.163Z,80.85
2022-11-01T10:37:51.898Z,80.35
2022-11-01T10:39:23.336Z,80.45
2022-11-01T10:40:01.471Z,80.39
2022-11-01T10:40:43.114Z,80.19
2022-11-01T10:41:42.107Z,80.39
2022-11-01T10:42:42.102Z,80.59
2022-11-01T10:43:42.083Z,80.05
2022-11-01T10:44:42.086Z,80.29
2022-11-01T10:45:47.259Z,80.79
2022-11-01T10:46:43.048Z,80.55
2022-11-01T10:47:42.053Z,80.96
2022-11-01T10:48:42.026Z,80.25
2022-11-01T10:50:43.005Z,80.79
2022-11-01T10:51:41.997Z,80.76
2022-11-01T10:52:41.998Z,80.90
2022-11-01T10:53:41.974Z,80.79
2022-11-01T10:54:41.961Z,80.96
2022-11-01T10:55:41.953Z,80.96
2022-11-01T10:56:42.004Z,80.76
2022-11-01T10:57:41.940Z,80.76
2022-11-01T10:58:41.917Z,80.85
2022-11-01T10:59:41.911Z,80.85
2022-11-01T11:00:41.968Z,80.55
2022-11-01T11:01:42.048Z,80.72
2022-11-01T11:02:42.063Z,80.82
2022-11-01T11:03:41.866Z,80.62
2022-11-01T11:04:41.852Z,80.72
2022-11-01T11:05:41.847Z,80.27
2022-11-01T11:06:41.852Z,80.18
2022-11-01T11:07:41.835Z,80.27
2022-11-01T11:08:41.845Z,80.13
2022-11-01T11:09:41.812Z,79.83
2022-11-01T11:10:41.833Z,79.43
2022-11-01T11:11:41.779Z,79.19
2022-11-01T11:12:41.776Z,78.99
2022-11-01T11:13:41.797Z,79.19
2022-11-01T11:14:41.808Z,78.19
2022-11-01T11:15:41.735Z,77.98
2022-11-01T11:16:41.760Z,77.98
2022-11-01T11:17:41.727Z,77.84
2022-11-01T11:18:41.702Z,78.25
2022-11-01T11:19:41.694Z,78.35
2022-11-01T11:20:41.688Z,77.64
2022-11-01T11:21:41.677Z,77.64
2022-11-01T11:22:41.671Z,77.84
2022-11-01T11:23:41.663Z,77.95
2022-11-01T11:24:41.644Z,78.05
2022-11-01T11:25:41.660Z,77.75
2022-11-01T11:27:41.620Z,77.75
2022-11-01T11:28:41.601Z,77.75
2022-11-01T11:29:41.609Z,78.05
2022-11-01T11:30:41.578Z,77.84
2022-11-01T11:31:41.562Z,77.44
2022-11-01T11:32:41.578Z,78.08
2022-11-01T11:33:41.543Z,78.08
2022-11-01T11:34:41.536Z,78.19
2022-11-01T11:35:41.519Z,78.08
2022-11-01T11:36:42.043Z,78.49
2022-11-01T11:37:41.527Z,79.29
2022-11-01T11:38:41.485Z,78.99
2022-11-01T11:39:41.478Z,79.19
2022-11-01T11:40:41.476Z,79.09
2022-11-01T11:41:41.463Z,79.19
2022-11-01T11:42:41.455Z,79.39
2022-11-01T11:43:41.435Z,79.29
2022-11-01T11:44:41.422Z,79.63
2022-11-01T11:45:41.418Z,79.19
2022-11-01T11:46:41.413Z,79.69
2022-11-01T11:47:41.402Z,79.69
2022-11-01T11:48:41.396Z,79.39
2022-11-01T11:49:41.368Z,80.00
2022-11-01T11:50:41.356Z,80.20
2022-11-01T11:51:41.348Z,80.30
2022-11-01T11:52:41.343Z,79.93
2022-11-01T11:53:41.326Z,79.93
2022-11-01T11:54:41.313Z,80.54
2022-11-01T11:55:41.304Z,80.90
2022-11-01T11:56:41.292Z,80.84
2022-11-01T11:57:41.292Z,80.84
2022-11-01T11:58:41.272Z,80.74
2022-11-01T11:59:41.314Z,80.33
2022-11-01T12:00:41.252Z,80.84
2022-11-01T12:01:41.307Z,81.04
2022-11-01T12:02:41.316Z,80.84
2022-11-01T12:03:41.218Z,81.15
2022-11-01T12:04:41.222Z,81.15
2022-11-01T12:05:41.196Z,81.45
2022-11-01T12:06:41.186Z,82.15
2022-11-01T12:07:41.187Z,82.25
2022-11-01T12:08:41.162Z,82.15
2022-11-01T12:09:41.151Z,82.96
2022-11-01T12:10:41.154Z,82.76
2022-11-01T12:11:41.131Z,83.06
2022-11-01T12:12:41.132Z,82.56
2022-11-01T12:13:41.110Z,83.16
2022-11-01T12:14:41.096Z,83.36
2022-11-01T12:15:41.625Z,83.46
2022-11-01T12:16:41.076Z,83.80
2022-11-01T12:17:41.081Z,83.46
2022-11-01T12:18:41.051Z,83.87
2022-11-01T12:19:41.042Z,83.56
2022-11-01T12:20:41.046Z,83.56
2022-11-01T12:21:41.023Z,84.17
2022-11-01T12:22:41.021Z,84.07
2022-11-01T12:23:41.000Z,84.67
2022-11-01T12:24:40.988Z,84.37
2022-11-01T12:25:40.980Z,84.57
2022-11-01T12:26:40.966Z,84.67
2022-11-01T12:27:40.990Z,84.27
2022-11-01T12:28:40.953Z,84.97
2022-11-01T12:29:40.944Z,84.67
2022-11-01T12:30:40.931Z,84.67
2022-11-01T12:31:40.912Z,84.88
2022-11-01T12:32:40.914Z,84.97
2022-11-01T12:33:40.895Z,85.48
2022-11-01T12:34:42.589Z,85.17
2022-11-01T12:35:40.871Z,85.14
2022-11-01T12:36:40.876Z,84.88
2022-11-01T12:37:40.871Z,84.83
2022-11-01T12:38:40.836Z,84.74
2022-11-01T12:39:40.825Z,84.57
2022-11-01T12:40:40.813Z,84.74
2022-11-01T12:41:40.804Z,84.97
2022-11-01T12:42:40.800Z,84.57
2022-11-01T12:43:40.785Z,84.77
2022-11-01T12:44:40.770Z,84.94
2022-11-01T12:45:40.764Z,85.28
2022-11-01T12:46:40.748Z,85.48
2022-11-01T12:47:40.755Z,85.14
2022-11-01T12:48:40.726Z,85.28
2022-11-01T12:49:40.716Z,85.68
2022-11-01T12:50:40.707Z,85.38
2022-11-01T12:51:40.699Z,85.08
2022-11-01T12:52:40.756Z,85.48
2022-11-01T12:53:40.676Z,85.28
2022-11-01T12:54:40.661Z,86.18
2022-11-01T12:55:40.652Z,85.08
2022-11-01T12:56:40.644Z,85.17
2022-11-01T12:57:40.641Z,85.17